Terminal Aerodrome Forecast
Issued by NWS Charleston, WV

Current Version | Previous Version | Graphics & Text | Print | Product List | Glossary On
Versions: 1 2 3 4 5 6 7 8 9 10 11 12 13 14 15 16 17 18 19 20 21 22 23 24 25 26 27
000
FTUS41 KRLX 110239 AAA
TAFBKW
TAF AMD
KBKW 110239Z 1103/1124 23008KT P6SM SCT100
     FM110500 26010G18KT P6SM BKN060
     FM110700 27011G20KT P6SM SCT050
     FM111000 28009G15KT P6SM SCT030
     FM111500 24006KT P6SM SCT035
     FM111600 23006KT P6SM FEW250
     FM112200 19006KT P6SM SCT130=

USA.gov is the U.S. government's official web portal to all federal, state and local government web resources and services.